Flight Track Log - Related Links

Times and Time Zones

All times are in EDT time to prevent confusion due to time zone crossing. See the N7800 flight status page for this flight to view local times or setup timezone preferences in your user account.

Time Position Orientation Groundspeed Altitude Reporting Facility
EDT Latitude Longitude Course Direction KTS MPH feet Rate Location/Type
Mon 11:10:18 AM 42.9164 -97.2089 75° East 134 154 5,900  Level Minneapolis Center
Mon 11:11:20 AM 42.9272 -97.1544 75° East 139 160 6,700 871 Climbing Minneapolis Center
Mon 11:12:22 AM 42.9372 -97.0989 76° East 144 166 7,700 912 Climbing Minneapolis Center
Mon 11:13:25 AM 42.9494 -97.0442 73° East 148 170 8,600 864 Climbing Minneapolis Center
Mon 11:14:27 AM 42.9617 -96.9858 74° East 155 178 9,500 919 Climbing Minneapolis Center
Mon 11:15:29 AM 42.9733 -96.9269 75° East 160 184 10,500 919 Climbing Minneapolis Center
Mon 11:16:31 AM 42.9883 -96.8522 75° East 167 192 11,400 774 Climbing Minneapolis Center
Mon 11:17:33 AM 43.0006 -96.7886 75° East 171 197 12,100 677 Climbing Minneapolis Center
Mon 11:18:35 AM 43.0142 -96.7211 75° East 179 206 12,800 726 Climbing Minneapolis Center
Mon 11:19:37 AM 43.0275 -96.6564 74° East 179 206 13,600 677 Climbing Minneapolis Center
Mon 11:20:39 AM 43.0414 -96.5883 74° East 183 211 14,200 823 Climbing Minneapolis Center
Mon 11:21:41 AM 43.0550 -96.5083 77° East 182 209 15,300 823 Climbing Minneapolis Center
Mon 11:22:43 AM 43.0694 -96.4364 75° East 190 219 15,900 548 Climbing Minneapolis Center
Mon 11:24:00 AM 43.1002 -96.3494 75° East  Level FlightAware Approximate
Mon 11:24:47 AM 43.0953 -96.3022 75° East 202 232 17,000  Level Minneapolis Center
Mon 11:25:49 AM 43.1136 -96.2092 75° East 209 241 17,000  Level Minneapolis Center
Mon 11:26:51 AM 43.1294 -96.1242 76° East 220 253 17,000  Level Minneapolis Center
Mon 11:27:53 AM 43.1494 -96.0192 75° East 235 270 17,000  Level Minneapolis Center
Mon 11:29:07 AM 43.1644 -95.9411 75° East 220 253 17,000  Level Minneapolis Center
Mon 11:30:10 AM 43.1814 -95.8467 76° East 217 250 17,000  Level Minneapolis Center
Mon 11:31:12 AM 43.1964 -95.7692 75° East 214 246 17,000  Level Minneapolis Center
Mon 11:32:14 AM 43.2111 -95.6919 75° East 209 241 17,000  Level Minneapolis Center
Mon 11:33:16 AM 43.2289 -95.5994 75° East 210 242 17,000  Level Minneapolis Center
Mon 11:34:30 AM 43.2431 -95.5203 76° East 213 245 17,000  Level Minneapolis Center
Mon 11:35:33 AM 43.2600 -95.4261 76° East 213 245 17,000  Level Minneapolis Center
Mon 11:36:35 AM 43.2750 -95.3492 75° East 212 244 17,000  Level Minneapolis Center
Mon 11:37:37 AM 43.2889 -95.2717 76° East 210 242 17,000  Level Minneapolis Center
Mon 11:38:39 AM 43.3064 -95.1775 76° East 213 245 17,000  Level Minneapolis Center
Mon 11:39:41 AM 43.3197 -95.1006 77° East 211 243 17,000  Level Minneapolis Center
Mon 11:40:55 AM 43.3336 -95.0228 76° East 211 243 17,000  Level Minneapolis Center
Mon 11:41:57 AM 43.3508 -94.9308 76° East 209 241 17,000  Level Minneapolis Center
Mon 11:43:00 AM 43.3636 -94.8533 77° East 210 242 17,000  Level Minneapolis Center
Mon 11:44:01 AM 43.3753 -94.7911 76° East 210 242 17,000  Level Minneapolis Center
Mon 11:45:04 AM 43.3947 -94.6819 76° East 210 242 17,000  Level Minneapolis Center
Mon 11:46:06 AM 43.4083 -94.6036 77° East 211 243 17,000  Level Minneapolis Center
Mon 11:47:08 AM 43.4225 -94.5267 76° East 209 241 17,000  Level Minneapolis Center
Mon 11:48:10 AM 43.4358 -94.4469 77° East 213 245 17,000  Level Minneapolis Center
Mon 11:49:12 AM 43.4494 -94.3692 76° East 212 244 17,000  Level Minneapolis Center
Mon 11:50:14 AM 43.4661 -94.2742 76° East 213 245 17,000  Level Minneapolis Center
Mon 11:51:16 AM 43.4758 -94.2078 79° East 212 244 17,000  Level Minneapolis Center
Mon 11:52:18 AM 43.4900 -94.1283 76° East 213 245 17,000  Level Minneapolis Center
Mon 11:53:20 AM 43.5042 -94.0353 78° East 211 243 17,000  Level Minneapolis Center
Mon 11:54:22 AM 43.5181 -93.9564 76° East 211 243 17,000  Level Minneapolis Center
Mon 11:55:24 AM 43.5328 -93.8786 75° East 211 243 17,000  Level Minneapolis Center
Mon 11:56:26 AM 43.5447 -93.8142 76° East 213 245 17,000  Level Minneapolis Center
Mon 11:57:28 AM 43.5622 -93.7028 78° East 214 246 17,000  Level Minneapolis Center
Mon 11:58:31 AM 43.5758 -93.6231 77° East 214 246 17,000  Level Minneapolis Center
Mon 11:59:45 AM 43.5889 -93.5461 77° East 208 239 17,000  Level Minneapolis Center
Mon 12:00:47 PM 43.5969 -93.4517 83° East 208 239 17,000  Level Minneapolis Center
Mon 12:01:49 PM 43.6036 -93.3886 82° East 208 239 17,000  Level Minneapolis Center
Mon 12:02:51 PM 43.6111 -93.2953 84° East 206 237 17,000  Level Minneapolis Center
Mon 12:03:53 PM 43.6208 -93.1989 82° East 211 243 17,000  Level Minneapolis Center
Mon 12:04:55 PM 43.6272 -93.1261 83° East 205 236 17,000  Level Minneapolis Center
Mon 12:05:58 PM 43.6339 -93.0475 83° East 206 237 17,000  Level Minneapolis Center
Mon 12:07:00 PM 43.6414 -92.9694 82° East 207 238 17,000  Level Minneapolis Center
Mon 12:08:02 PM 43.6503 -92.8747 83° East 208 239 17,000  Level Minneapolis Center
Mon 12:09:04 PM 43.6561 -92.7969 84° East 207 238 17,000  Level Minneapolis Center
Mon 12:10:06 PM 43.6639 -92.7175 82° East 208 239 17,000  Level Minneapolis Center
Mon 12:11:08 PM 43.6711 -92.6394 83° East 208 239 17,000  Level Minneapolis Center
Mon 12:12:10 PM 43.6778 -92.5583 83° East 212 244 17,000  Level Minneapolis Center
Mon 12:13:12 PM 43.6853 -92.4636 84° East 209 241 17,000  Level Minneapolis Center
Mon 12:14:14 PM 43.6931 -92.3811 83° East 217 250 17,000  Level Minneapolis Center
Mon 12:15:16 PM 43.6994 -92.3033 83° East 206 237 17,000  Level Minneapolis Center
Mon 12:16:18 PM 43.7067 -92.2231 83° East 211 243 17,000  Level Minneapolis Center
Mon 12:17:20 PM 43.7128 -92.1436 84° East 209 241 17,000  Level Minneapolis Center
Mon 12:18:23 PM 43.7208 -92.0478 83° East 210 242 17,000  Level Minneapolis Center
Mon 12:19:25 PM 43.7278 -91.9672 83° East 213 245 17,000  Level Minneapolis Center
Mon 12:20:27 PM 43.7344 -91.8875 83° East 210 242 17,000  Level Minneapolis Center
Mon 12:21:29 PM 43.7353 -91.8072 89° East 210 242 17,000  Level Minneapolis Center
Mon 12:22:31 PM 43.7350 -91.7275 90° East 209 241 17,000  Level Minneapolis Center
Mon 12:23:33 PM 43.7356 -91.6331 90° East 207 238 17,000  Level Minneapolis Center
Mon 12:24:35 PM 43.7439 -91.5553 82° East 205 236 17,000  Level Minneapolis Center
Mon 12:25:37 PM 43.7528 -91.4758 81° East 208 239 17,000  Level Minneapolis Center
Mon 12:26:39 PM 43.7611 -91.3972 82° East 208 239 17,000  Level Minneapolis Center
Mon 12:27:41 PM 43.7700 -91.3069 82° East 210 242 17,000  Level Minneapolis Center
Mon 12:28:43 PM 43.7778 -91.2208 83° East 213 245 17,000 -88 Level Minneapolis Center
Mon 12:29:57 PM 43.7864 -91.1381 82° East 210 242 16,800 -350 Descending Minneapolis Center
Mon 12:31:00 PM 43.7964 -91.0375 82° East 218 251 16,200 -528 Descending Minneapolis Center
Mon 12:32:02 PM 43.8050 -90.9492 82° East 221 254 15,700 -435 Descending Minneapolis Center
Mon 12:33:04 PM 43.8072 -90.8814 87° East 220 253 15,300 -532 Descending Minneapolis Center
Mon 12:34:06 PM 43.8094 -90.7708 88° East 223 257 14,600 -581 Descending Minneapolis Center
Mon 12:35:08 PM 43.8114 -90.6842 88° East 220 253 14,100 -484 Descending Minneapolis Center

Login

Don't have an account? Register now (free) for customized features, flight alerts, and more!